NCAR-RAP Real-Time Weather Data

Output produced by METARs form (26 May 2022  07:47 UTC)
found at http://weather.rap.ucar.edu/surface/
 
KTLH 260253Z 25006KT 10SM FEW006 FEW026 BKN090 21/20 A3010 RMK RAE31 SLP190 P0001 60001 T02110200 53018
KTLH 260238Z 24009KT 10SM FEW006 FEW026 BKN090 21/21 A3010 RMK RAE31 P0001 T02110206
KTLH 260153Z 23008KT 10SM -RA FEW026 SCT080 BKN110 23/22 A3007 RMK RAB33 TSE20 SLP182 P0000 T02330217
KTLH 260119Z VRB03KT 10SM SCT031 BKN090 OVC250 26/23 A3006 RMK TSE20 T02610228
KTLH 260053Z VRB03KT 10SM TS SCT031CB BKN080 BKN250 26/23 A3005 RMK RAB36RAE46 TSB46 SLP176 OCNL LTGIC SW-W TS SW-W MOV N P0000 T02610228
KTLH 260046Z VRB03KT 10SM TS SCT031CB BKN080 BKN250 27/23 A3005 RMK RAB36RAE46 TSB46 OCNL LTGIC SW-W TS SW-W MOV N P0000 T02670228
KTLH 252353Z VRB06KT 10SM SCT031 BKN080 BKN250 27/22 A3004 RMK SLP172 T02670222 10306 20267 53001
KTLH 252253Z 16007KT 10SM SCT031 BKN075 BKN250 28/22 A3004 RMK SLP170 T02780222
KTLH 252153Z 16006KT 10SM SCT031 BKN075 BKN250 28/22 A3004 RMK SLP172 T02830217
KTLH 252053Z 17007KT 10SM SCT031 BKN075 BKN250 28/21 A3004 RMK SLP171 CB DSNT NE-SE MOV N T02830211 55005
KTLH 251953Z 18010KT 10SM BKN035 BKN250 29/21 A3004 RMK SLP170 T02940206
KTLH 251853Z 16012KT 10SM BKN035 BKN250 31/21 A3005 RMK SLP175 T03060206
KTLH 251753Z 15013KT 10SM BKN037 BKN250 30/20 A3006 RMK SLP176 T03000200 10306 20233 58002
KTLH 251653Z 13013KT G19 10SM SCT037 30/21 A3007 RMK AO2 SLP181 T03000206
KTLH 251553Z 15013KT 10SM BKN031 29/21 A3008 RMK AO2 SLP185 T02940211
KTLH 251453Z COR 17016KT G21 10SM SCT026 SCT250 29/22 A3006 RMK AO2 SLP179 T02890217
KTLH 251353Z 14015KT 10SM SCT022 SCT250 28/22 A3006 RMK AO2 SLP178 T02780222
KTLH 251253Z 13010KT 10SM SCT090 26/21 A3005 RMK AO2 SLP176 T02560211
KTLH 251153Z 11009KT 10SM FEW090 23/21 A3005 RMK AO2 SLP173 T02330211
KTLH 251053Z 11007KT 10SM FEW150 23/21 A3002 RMK AO2 SLP165 T02280211
KTLH 250953Z 10003KT 10SM CLR 22/21 A3001 RMK AO2 SLP160 T02220211
KTLH 250902Z 10003KT 10SM CLR 22/21 A3002 RMK AO2 T02220211
KTLH 250353Z 08005KT 10SM CLR 24/22 A3004 RMK SLP171 T02390222
KTLH 250253Z 09005KT 10SM SCT250 25/22 A3004 RMK SLP169 T02500222 51012
KTLH 250153Z 15003KT 10SM FEW044 SCT250 26/23 A3002 RMK SLP166 FRQ LTGIC DSNT E TS DSNT E MOV UNKN T02560228
KTLH 250053Z 15003KT 10SM FEW044 BKN250 27/23 A3002 RMK SLP163 T02670228
KTLH 242353Z 17006KT 10SM FEW044 BKN250 28/22 A3000 RMK SLP158 T002830222 10333 20283 53006
KTLH 242253Z 15006KT 10SM FEW026 SCT044 BKN250 29/23 A2998 RMK SLP152 T02940228
KTLH 242153Z 13014G17KT 10SM BKN044 BKN250 30/22 A2999 RMK SLP153 CB DSNT NW-N T03000222
KTLH 242053Z 15012G19KT 10SM BKN044 BKN250 31/20 A2998 RMK SLP151 CB DSNT NE-E T03110200 56020
KTLH 241953Z 18014KT 10SM BKN044TCU BKN250 33/20 A2999 RMK SLP153 CB DSNT E TCU W T03280200
KTLH 241853Z 20009KT 10SM SCT040 BKN250 32/22 A3002 RMK SLP163 CB DSNT N-E AND NW T03170217
KTLH 241753Z 20011KT 10SM BKN040 BKN250 31/22 A3004 RMK SLP171 T03060217 10311 20222 58003
KTLH 241653Z 18007KT 10SM SCT038 31/22 A3004 RMK AO2 SLP170 T03110222
KTLH 241553Z VRB04KT 10SM SCT035 30/21 A3006 RMK AO2 SLP177 T03000211
KTLH 241453Z 18005KT 10SM FEW024 FEW110 28/22 A3005 RMK AO2 SLP175 T02830222 53002
KTLH 241353Z 00000KT 10SM FEW110 FEW250 26/22 A3004 RMK AO2 SLP172 T02610217
KTLH 241253Z 09006KT 10SM SCT110 BKN200 24/21 A3004 RMK AO2 SLP172 T02440211
KTLH 241153Z 33003KT 10SM SCT110 BKN200 22/20 A3004 RMK AO2 SLP172 T02220200
KTLH 241053Z 00000KT 10SM SCT110 SCT250 21/19 A3001 RMK AO2 SLP162 T02110194
KTLH 240953Z 00000KT 10SM CLR 21/19 A3000 RMK AO2 SLP158 T02110194
KTLH 240903Z 09004KT 10SM CLR 21/19 A3000 RMK AO2 T02110194